sensor_id;sensor_type;location;lat;lon;timestamp;P1;durP1;ratioP1;P2;durP2;ratioP2
42662;SDS011;44330;51.360;6.686;2023-07-13T00:02:14;3.70;;;1.35;;
42662;SDS011;44330;51.360;6.686;2023-07-13T00:04:40;6.15;;;1.40;;
42662;SDS011;44330;51.360;6.686;2023-07-13T00:07:06;6.25;;;1.42;;
42662;SDS011;44330;51.360;6.686;2023-07-13T00:09:32;5.97;;;1.25;;
42662;SDS011;44330;51.360;6.686;2023-07-13T00:11:58;6.90;;;1.75;;
42662;SDS011;44330;51.360;6.686;2023-07-13T00:14:25;7.40;;;1.92;;
42662;SDS011;44330;51.360;6.686;2023-07-13T00:16:52;5.68;;;1.45;;
42662;SDS011;44330;51.360;6.686;2023-07-13T00:19:18;11.77;;;1.55;;
42662;SDS011;44330;51.360;6.686;2023-07-13T00:21:44;7.10;;;1.90;;
42662;SDS011;44330;51.360;6.686;2023-07-13T00:24:11;5.22;;;2.00;;
42662;SDS011;44330;51.360;6.686;2023-07-13T00:26:39;3.63;;;1.38;;
42662;SDS011;44330;51.360;6.686;2023-07-13T00:29:05;6.90;;;1.33;;
42662;SDS011;44330;51.360;6.686;2023-07-13T00:31:33;8.53;;;2.30;;
42662;SDS011;44330;51.360;6.686;2023-07-13T00:33:59;7.45;;;2.00;;
42662;SDS011;44330;51.360;6.686;2023-07-13T00:36:25;6.25;;;2.40;;
42662;SDS011;44330;51.360;6.686;2023-07-13T00:38:51;8.10;;;1.80;;
42662;SDS011;44330;51.360;6.686;2023-07-13T00:41:16;7.07;;;2.10;;
42662;SDS011;44330;51.360;6.686;2023-07-13T00:43:42;6.88;;;1.58;;
42662;SDS011;44330;51.360;6.686;2023-07-13T00:46:10;8.80;;;2.00;;
42662;SDS011;44330;51.360;6.686;2023-07-13T00:48:39;4.68;;;1.40;;
42662;SDS011;44330;51.360;6.686;2023-07-13T00:51:07;7.18;;;1.50;;
42662;SDS011;44330;51.360;6.686;2023-07-13T00:53:33;9.70;;;2.40;;
42662;SDS011;44330;51.360;6.686;2023-07-13T00:55:59;8.63;;;1.98;;
42662;SDS011;44330;51.360;6.686;2023-07-13T00:58:25;5.32;;;1.77;;
42662;SDS011;44330;51.360;6.686;2023-07-13T01:00:52;8.27;;;1.70;;
42662;SDS011;44330;51.360;6.686;2023-07-13T01:03:18;6.45;;;1.92;;
42662;SDS011;44330;51.360;6.686;2023-07-13T01:05:44;5.72;;;1.85;;
42662;SDS011;44330;51.360;6.686;2023-07-13T01:08:13;11.18;;;2.38;;
42662;SDS011;44330;51.360;6.686;2023-07-13T01:10:38;12.75;;;1.95;;
42662;SDS011;44330;51.360;6.686;2023-07-13T01:13:08;9.00;;;1.92;;
42662;SDS011;44330;51.360;6.686;2023-07-13T01:15:42;7.80;;;1.70;;
42662;SDS011;44330;51.360;6.686;2023-07-13T01:18:10;6.63;;;1.90;;
42662;SDS011;44330;51.360;6.686;2023-07-13T01:20:50;11.23;;;2.45;;
42662;SDS011;44330;51.360;6.686;2023-07-13T01:23:16;10.40;;;1.60;;
42662;SDS011;44330;51.360;6.686;2023-07-13T01:25:42;9.50;;;1.85;;
42662;SDS011;44330;51.360;6.686;2023-07-13T01:28:08;7.38;;;1.58;;
42662;SDS011;44330;51.360;6.686;2023-07-13T01:30:38;11.35;;;1.65;;
42662;SDS011;44330;51.360;6.686;2023-07-13T01:33:06;4.80;;;1.40;;
42662;SDS011;44330;51.360;6.686;2023-07-13T01:35:33;14.18;;;1.80;;
42662;SDS011;44330;51.360;6.686;2023-07-13T01:37:59;11.25;;;1.88;;
42662;SDS011;44330;51.360;6.686;2023-07-13T01:40:26;8.85;;;1.80;;
42662;SDS011;44330;51.360;6.686;2023-07-13T01:42:52;8.52;;;2.08;;
42662;SDS011;44330;51.360;6.686;2023-07-13T01:45:17;6.13;;;1.50;;
42662;SDS011;44330;51.360;6.686;2023-07-13T01:47:43;7.43;;;1.75;;
42662;SDS011;44330;51.360;6.686;2023-07-13T01:50:09;5.03;;;1.67;;
42662;SDS011;44330;51.360;6.686;2023-07-13T01:52:35;5.82;;;1.70;;
42662;SDS011;44330;51.360;6.686;2023-07-13T01:55:00;6.43;;;1.88;;
42662;SDS011;44330;51.360;6.686;2023-07-13T01:57:27;6.20;;;1.70;;
42662;SDS011;44330;51.360;6.686;2023-07-13T01:59:53;7.45;;;2.03;;
42662;SDS011;44330;51.360;6.686;2023-07-13T02:02:18;9.50;;;1.80;;
42662;SDS011;44330;51.360;6.686;2023-07-13T02:04:44;8.75;;;2.03;;
42662;SDS011;44330;51.360;6.686;2023-07-13T02:07:10;6.40;;;2.15;;
42662;SDS011;44330;51.360;6.686;2023-07-13T02:09:36;10.82;;;1.92;;
42662;SDS011;44330;51.360;6.686;2023-07-13T02:12:01;7.00;;;1.92;;
42662;SDS011;44330;51.360;6.686;2023-07-13T02:14:27;8.93;;;1.95;;
42662;SDS011;44330;51.360;6.686;2023-07-13T02:16:53;6.97;;;2.20;;
42662;SDS011;44330;51.360;6.686;2023-07-13T02:19:18;10.82;;;2.28;;
42662;SDS011;44330;51.360;6.686;2023-07-13T02:21:44;5.90;;;1.75;;
42662;SDS011;44330;51.360;6.686;2023-07-13T02:24:09;8.00;;;1.95;;
42662;SDS011;44330;51.360;6.686;2023-07-13T02:26:40;4.53;;;2.03;;
42662;SDS011;44330;51.360;6.686;2023-07-13T02:29:05;9.20;;;1.90;;
42662;SDS011;44330;51.360;6.686;2023-07-13T02:31:31;8.93;;;1.77;;
42662;SDS011;44330;51.360;6.686;2023-07-13T02:33:56;6.22;;;1.60;;
42662;SDS011;44330;51.360;6.686;2023-07-13T02:36:22;6.13;;;1.60;;
42662;SDS011;44330;51.360;6.686;2023-07-13T02:38:49;6.88;;;1.80;;
42662;SDS011;44330;51.360;6.686;2023-07-13T02:41:15;5.45;;;1.92;;
42662;SDS011;44330;51.360;6.686;2023-07-13T02:43:40;6.80;;;1.88;;
42662;SDS011;44330;51.360;6.686;2023-07-13T02:46:06;7.63;;;2.17;;
42662;SDS011;44330;51.360;6.686;2023-07-13T02:48:32;10.75;;;2.40;;
42662;SDS011;44330;51.360;6.686;2023-07-13T02:50:58;10.45;;;2.35;;
42662;SDS011;44330;51.360;6.686;2023-07-13T02:53:24;10.10;;;2.45;;
42662;SDS011;44330;51.360;6.686;2023-07-13T02:55:50;8.93;;;2.33;;
42662;SDS011;44330;51.360;6.686;2023-07-13T02:58:15;11.38;;;2.47;;
42662;SDS011;44330;51.360;6.686;2023-07-13T03:00:44;7.22;;;2.00;;
42662;SDS011;44330;51.360;6.686;2023-07-13T03:03:11;9.90;;;1.63;;
42662;SDS011;44330;51.360;6.686;2023-07-13T03:05:41;5.80;;;1.38;;
42662;SDS011;44330;51.360;6.686;2023-07-13T03:08:09;6.30;;;1.85;;
42662;SDS011;44330;51.360;6.686;2023-07-13T03:10:36;9.10;;;2.95;;
42662;SDS011;44330;51.360;6.686;2023-07-13T03:13:02;10.18;;;2.15;;
42662;SDS011;44330;51.360;6.686;2023-07-13T03:15:27;12.63;;;2.35;;
42662;SDS011;44330;51.360;6.686;2023-07-13T03:17:53;12.00;;;2.90;;
42662;SDS011;44330;51.360;6.686;2023-07-13T03:20:18;7.53;;;2.17;;
42662;SDS011;44330;51.360;6.686;2023-07-13T03:22:44;10.38;;;2.30;;
42662;SDS011;44330;51.360;6.686;2023-07-13T03:25:10;9.10;;;2.03;;
42662;SDS011;44330;51.360;6.686;2023-07-13T03:27:36;8.75;;;1.60;;
42662;SDS011;44330;51.360;6.686;2023-07-13T03:30:02;8.23;;;1.80;;
42662;SDS011;44330;51.360;6.686;2023-07-13T03:32:29;9.25;;;1.63;;
42662;SDS011;44330;51.360;6.686;2023-07-13T03:34:54;6.25;;;1.85;;
42662;SDS011;44330;51.360;6.686;2023-07-13T03:37:20;7.95;;;2.28;;
42662;SDS011;44330;51.360;6.686;2023-07-13T03:39:46;7.82;;;2.25;;
42662;SDS011;44330;51.360;6.686;2023-07-13T03:42:11;5.75;;;1.73;;
42662;SDS011;44330;51.360;6.686;2023-07-13T03:44:38;14.98;;;2.03;;
42662;SDS011;44330;51.360;6.686;2023-07-13T03:47:04;9.43;;;2.05;;
42662;SDS011;44330;51.360;6.686;2023-07-13T03:49:31;24.33;;;2.45;;
42662;SDS011;44330;51.360;6.686;2023-07-13T03:51:56;5.50;;;1.90;;
42662;SDS011;44330;51.360;6.686;2023-07-13T03:54:22;4.22;;;1.75;;
42662;SDS011;44330;51.360;6.686;2023-07-13T03:56:47;6.18;;;2.00;;
42662;SDS011;44330;51.360;6.686;2023-07-13T03:59:13;5.35;;;2.00;;
42662;SDS011;44330;51.360;6.686;2023-07-13T04:01:38;12.65;;;2.03;;
42662;SDS011;44330;51.360;6.686;2023-07-13T04:04:04;10.43;;;2.85;;
42662;SDS011;44330;51.360;6.686;2023-07-13T04:06:30;12.43;;;1.98;;
42662;SDS011;44330;51.360;6.686;2023-07-13T04:08:57;10.35;;;2.38;;
42662;SDS011;44330;51.360;6.686;2023-07-13T04:11:26;13.50;;;2.60;;
42662;SDS011;44330;51.360;6.686;2023-07-13T04:13:53;4.65;;;2.10;;
42662;SDS011;44330;51.360;6.686;2023-07-13T04:16:19;8.95;;;2.20;;
42662;SDS011;44330;51.360;6.686;2023-07-13T04:18:45;10.95;;;2.88;;
42662;SDS011;44330;51.360;6.686;2023-07-13T04:21:12;7.93;;;2.10;;
42662;SDS011;44330;51.360;6.686;2023-07-13T04:23:38;12.23;;;2.22;;
42662;SDS011;44330;51.360;6.686;2023-07-13T04:26:05;14.95;;;2.40;;
42662;SDS011;44330;51.360;6.686;2023-07-13T04:28:31;10.48;;;3.00;;
42662;SDS011;44330;51.360;6.686;2023-07-13T04:30:57;13.15;;;2.95;;
42662;SDS011;44330;51.360;6.686;2023-07-13T04:33:23;11.93;;;2.30;;
42662;SDS011;44330;51.360;6.686;2023-07-13T04:35:49;6.63;;;2.10;;
42662;SDS011;44330;51.360;6.686;2023-07-13T04:38:21;8.55;;;2.25;;
42662;SDS011;44330;51.360;6.686;2023-07-13T04:40:47;6.72;;;1.80;;
42662;SDS011;44330;51.360;6.686;2023-07-13T04:43:13;14.15;;;2.35;;
42662;SDS011;44330;51.360;6.686;2023-07-13T04:45:39;7.93;;;2.47;;
42662;SDS011;44330;51.360;6.686;2023-07-13T04:48:05;8.27;;;2.15;;
42662;SDS011;44330;51.360;6.686;2023-07-13T04:50:31;9.68;;;2.22;;
42662;SDS011;44330;51.360;6.686;2023-07-13T04:52:56;9.93;;;2.05;;
42662;SDS011;44330;51.360;6.686;2023-07-13T04:55:22;5.10;;;1.95;;
42662;SDS011;44330;51.360;6.686;2023-07-13T04:57:47;7.65;;;2.38;;
42662;SDS011;44330;51.360;6.686;2023-07-13T05:00:13;10.77;;;2.25;;
42662;SDS011;44330;51.360;6.686;2023-07-13T05:02:40;11.32;;;2.65;;
42662;SDS011;44330;51.360;6.686;2023-07-13T05:05:10;8.57;;;2.30;;
42662;SDS011;44330;51.360;6.686;2023-07-13T05:07:35;5.45;;;1.77;;
42662;SDS011;44330;51.360;6.686;2023-07-13T05:10:01;9.85;;;2.13;;
42662;SDS011;44330;51.360;6.686;2023-07-13T05:12:28;9.65;;;2.15;;
42662;SDS011;44330;51.360;6.686;2023-07-13T05:14:54;12.35;;;2.25;;
42662;SDS011;44330;51.360;6.686;2023-07-13T05:17:20;7.63;;;1.88;;
42662;SDS011;44330;51.360;6.686;2023-07-13T05:19:46;9.13;;;2.03;;
42662;SDS011;44330;51.360;6.686;2023-07-13T05:22:11;10.50;;;2.38;;
42662;SDS011;44330;51.360;6.686;2023-07-13T05:24:37;11.25;;;2.65;;
42662;SDS011;44330;51.360;6.686;2023-07-13T05:27:03;12.20;;;2.63;;
42662;SDS011;44330;51.360;6.686;2023-07-13T05:29:29;7.90;;;2.20;;
42662;SDS011;44330;51.360;6.686;2023-07-13T05:31:54;17.83;;;2.67;;
42662;SDS011;44330;51.360;6.686;2023-07-13T05:34:20;9.82;;;2.03;;
42662;SDS011;44330;51.360;6.686;2023-07-13T05:36:45;12.20;;;3.25;;
42662;SDS011;44330;51.360;6.686;2023-07-13T05:39:11;8.20;;;2.47;;
42662;SDS011;44330;51.360;6.686;2023-07-13T05:41:37;9.35;;;3.08;;
42662;SDS011;44330;51.360;6.686;2023-07-13T05:44:02;14.02;;;2.88;;
42662;SDS011;44330;51.360;6.686;2023-07-13T05:46:28;11.18;;;2.95;;
42662;SDS011;44330;51.360;6.686;2023-07-13T05:48:53;14.13;;;2.50;;
42662;SDS011;44330;51.360;6.686;2023-07-13T05:51:19;9.82;;;3.03;;
42662;SDS011;44330;51.360;6.686;2023-07-13T05:53:44;11.02;;;2.40;;
42662;SDS011;44330;51.360;6.686;2023-07-13T05:56:10;11.88;;;2.75;;
42662;SDS011;44330;51.360;6.686;2023-07-13T05:58:36;17.23;;;3.35;;
42662;SDS011;44330;51.360;6.686;2023-07-13T06:01:03;10.88;;;3.45;;
42662;SDS011;44330;51.360;6.686;2023-07-13T06:03:30;9.60;;;3.00;;
42662;SDS011;44330;51.360;6.686;2023-07-13T06:05:56;12.48;;;3.28;;
42662;SDS011;44330;51.360;6.686;2023-07-13T06:08:21;9.95;;;3.17;;
42662;SDS011;44330;51.360;6.686;2023-07-13T06:10:47;11.63;;;2.88;;
42662;SDS011;44330;51.360;6.686;2023-07-13T06:13:12;13.23;;;2.97;;
42662;SDS011;44330;51.360;6.686;2023-07-13T06:15:38;9.45;;;2.92;;
42662;SDS011;44330;51.360;6.686;2023-07-13T06:18:03;12.82;;;3.35;;
42662;SDS011;44330;51.360;6.686;2023-07-13T06:20:29;14.15;;;4.25;;
42662;SDS011;44330;51.360;6.686;2023-07-13T06:22:55;12.32;;;2.88;;
42662;SDS011;44330;51.360;6.686;2023-07-13T06:25:20;15.10;;;2.95;;
42662;SDS011;44330;51.360;6.686;2023-07-13T06:27:46;16.25;;;3.28;;
42662;SDS011;44330;51.360;6.686;2023-07-13T06:30:12;12.80;;;3.22;;
42662;SDS011;44330;51.360;6.686;2023-07-13T06:32:37;18.00;;;4.20;;
42662;SDS011;44330;51.360;6.686;2023-07-13T06:35:03;10.45;;;3.67;;
42662;SDS011;44330;51.360;6.686;2023-07-13T06:37:29;9.15;;;2.72;;
42662;SDS011;44330;51.360;6.686;2023-07-13T06:39:55;17.83;;;4.25;;
42662;SDS011;44330;51.360;6.686;2023-07-13T06:42:20;12.00;;;3.78;;
42662;SDS011;44330;51.360;6.686;2023-07-13T06:44:46;15.70;;;3.08;;
42662;SDS011;44330;51.360;6.686;2023-07-13T06:47:11;16.92;;;3.80;;
42662;SDS011;44330;51.360;6.686;2023-07-13T06:49:37;13.68;;;3.50;;
42662;SDS011;44330;51.360;6.686;2023-07-13T06:52:03;23.00;;;3.90;;
42662;SDS011;44330;51.360;6.686;2023-07-13T06:54:29;19.98;;;4.20;;
42662;SDS011;44330;51.360;6.686;2023-07-13T06:56:54;13.45;;;3.58;;
42662;SDS011;44330;51.360;6.686;2023-07-13T06:59:20;14.82;;;3.92;;
42662;SDS011;44330;51.360;6.686;2023-07-13T07:01:45;13.45;;;3.40;;
42662;SDS011;44330;51.360;6.686;2023-07-13T07:04:14;12.77;;;3.67;;
42662;SDS011;44330;51.360;6.686;2023-07-13T07:06:39;11.60;;;3.55;;
42662;SDS011;44330;51.360;6.686;2023-07-13T07:09:05;10.93;;;3.45;;
42662;SDS011;44330;51.360;6.686;2023-07-13T07:11:31;10.57;;;3.45;;
42662;SDS011;44330;51.360;6.686;2023-07-13T07:13:56;15.55;;;3.55;;
42662;SDS011;44330;51.360;6.686;2023-07-13T07:16:22;13.20;;;4.20;;
42662;SDS011;44330;51.360;6.686;2023-07-13T07:18:49;12.95;;;4.45;;
42662;SDS011;44330;51.360;6.686;2023-07-13T07:21:15;11.52;;;3.40;;
42662;SDS011;44330;51.360;6.686;2023-07-13T07:23:41;13.32;;;3.58;;
42662;SDS011;44330;51.360;6.686;2023-07-13T07:26:07;12.93;;;4.30;;
42662;SDS011;44330;51.360;6.686;2023-07-13T07:28:35;12.75;;;3.90;;
42662;SDS011;44330;51.360;6.686;2023-07-13T07:31:01;13.02;;;3.70;;
42662;SDS011;44330;51.360;6.686;2023-07-13T07:33:26;10.65;;;4.15;;
42662;SDS011;44330;51.360;6.686;2023-07-13T07:35:52;13.15;;;4.13;;
42662;SDS011;44330;51.360;6.686;2023-07-13T07:38:18;11.40;;;4.20;;
42662;SDS011;44330;51.360;6.686;2023-07-13T07:40:44;12.57;;;3.80;;
42662;SDS011;44330;51.360;6.686;2023-07-13T07:43:10;13.30;;;3.53;;
42662;SDS011;44330;51.360;6.686;2023-07-13T07:45:37;13.35;;;3.55;;
42662;SDS011;44330;51.360;6.686;2023-07-13T07:48:04;8.73;;;2.90;;
42662;SDS011;44330;51.360;6.686;2023-07-13T07:50:30;10.32;;;3.33;;
42662;SDS011;44330;51.360;6.686;2023-07-13T07:52:56;13.20;;;3.35;;
42662;SDS011;44330;51.360;6.686;2023-07-13T07:55:22;14.38;;;3.75;;
42662;SDS011;44330;51.360;6.686;2023-07-13T07:57:48;12.27;;;3.28;;
42662;SDS011;44330;51.360;6.686;2023-07-13T08:00:15;15.18;;;4.00;;
42662;SDS011;44330;51.360;6.686;2023-07-13T08:02:41;7.97;;;2.90;;
42662;SDS011;44330;51.360;6.686;2023-07-13T08:05:07;10.82;;;2.97;;
42662;SDS011;44330;51.360;6.686;2023-07-13T08:07:33;19.55;;;3.55;;
42662;SDS011;44330;51.360;6.686;2023-07-13T08:09:59;13.15;;;3.05;;
42662;SDS011;44330;51.360;6.686;2023-07-13T08:12:24;16.80;;;3.72;;
42662;SDS011;44330;51.360;6.686;2023-07-13T08:14:50;8.85;;;3.25;;
42662;SDS011;44330;51.360;6.686;2023-07-13T08:17:18;8.70;;;3.25;;
42662;SDS011;44330;51.360;6.686;2023-07-13T08:19:44;8.35;;;2.92;;
42662;SDS011;44330;51.360;6.686;2023-07-13T08:22:10;8.43;;;3.28;;
42662;SDS011;44330;51.360;6.686;2023-07-13T08:24:36;13.18;;;3.20;;
42662;SDS011;44330;51.360;6.686;2023-07-13T08:27:01;7.13;;;2.60;;
42662;SDS011;44330;51.360;6.686;2023-07-13T08:29:27;13.30;;;3.38;;
42662;SDS011;44330;51.360;6.686;2023-07-13T08:31:52;8.23;;;2.53;;
42662;SDS011;44330;51.360;6.686;2023-07-13T08:34:19;12.10;;;3.22;;
42662;SDS011;44330;51.360;6.686;2023-07-13T08:36:45;12.50;;;3.08;;
42662;SDS011;44330;51.360;6.686;2023-07-13T08:39:11;12.77;;;3.30;;
42662;SDS011;44330;51.360;6.686;2023-07-13T08:41:36;10.20;;;2.28;;
42662;SDS011;44330;51.360;6.686;2023-07-13T08:44:03;6.75;;;2.70;;
42662;SDS011;44330;51.360;6.686;2023-07-13T08:46:36;10.88;;;2.65;;
42662;SDS011;44330;51.360;6.686;2023-07-13T08:54:28;12.15;;;3.42;;
42662;SDS011;44330;51.360;6.686;2023-07-13T08:57:13;7.82;;;2.70;;
42662;SDS011;44330;51.360;6.686;2023-07-13T08:59:40;9.80;;;2.90;;
42662;SDS011;44330;51.360;6.686;2023-07-13T09:04:54;23.48;;;3.38;;
42662;SDS011;44330;51.360;6.686;2023-07-13T09:10:32;16.85;;;3.75;;
42662;SDS011;44330;51.360;6.686;2023-07-13T09:16:04;12.90;;;3.13;;
42662;SDS011;44330;51.360;6.686;2023-07-13T09:21:04;8.50;;;2.60;;
42662;SDS011;44330;51.360;6.686;2023-07-13T09:23:42;10.05;;;3.08;;
42662;SDS011;44330;51.360;6.686;2023-07-13T09:26:19;9.98;;;3.13;;
42662;SDS011;44330;51.360;6.686;2023-07-13T09:28:48;14.93;;;3.15;;
42662;SDS011;44330;51.360;6.686;2023-07-13T09:31:36;8.25;;;2.83;;
42662;SDS011;44330;51.360;6.686;2023-07-13T09:34:09;16.77;;;3.13;;
42662;SDS011;44330;51.360;6.686;2023-07-13T09:36:35;14.85;;;3.08;;
42662;SDS011;44330;51.360;6.686;2023-07-13T09:44:13;10.85;;;2.47;;
42662;SDS011;44330;51.360;6.686;2023-07-13T09:46:45;11.13;;;3.05;;
42662;SDS011;44330;51.360;6.686;2023-07-13T09:49:18;12.40;;;3.05;;
42662;SDS011;44330;51.360;6.686;2023-07-13T09:51:48;11.30;;;3.47;;
42662;SDS011;44330;51.360;6.686;2023-07-13T09:54:23;9.15;;;2.45;;
42662;SDS011;44330;51.360;6.686;2023-07-13T09:56:56;10.57;;;2.90;;
42662;SDS011;44330;51.360;6.686;2023-07-13T09:59:27;9.20;;;2.72;;
42662;SDS011;44330;51.360;6.686;2023-07-13T10:01:56;19.58;;;3.10;;
42662;SDS011;44330;51.360;6.686;2023-07-13T10:04:26;13.15;;;3.00;;
42662;SDS011;44330;51.360;6.686;2023-07-13T10:07:07;9.77;;;2.53;;
42662;SDS011;44330;51.360;6.686;2023-07-13T10:09:34;8.40;;;2.17;;
42662;SDS011;44330;51.360;6.686;2023-07-13T10:12:00;11.32;;;2.63;;
42662;SDS011;44330;51.360;6.686;2023-07-13T10:14:26;12.13;;;3.60;;
42662;SDS011;44330;51.360;6.686;2023-07-13T10:16:57;8.65;;;2.72;;
42662;SDS011;44330;51.360;6.686;2023-07-13T10:19:27;11.95;;;3.38;;
42662;SDS011;44330;51.360;6.686;2023-07-13T10:25:18;8.75;;;2.28;;
42662;SDS011;44330;51.360;6.686;2023-07-13T10:27:47;10.05;;;2.53;;
42662;SDS011;44330;51.360;6.686;2023-07-13T10:30:20;6.85;;;2.38;;
42662;SDS011;44330;51.360;6.686;2023-07-13T10:32:50;13.07;;;3.47;;
42662;SDS011;44330;51.360;6.686;2023-07-13T10:35:17;6.88;;;2.25;;
42662;SDS011;44330;51.360;6.686;2023-07-13T10:40:27;8.35;;;2.50;;
42662;SDS011;44330;51.360;6.686;2023-07-13T10:43:10;10.68;;;2.78;;
42662;SDS011;44330;51.360;6.686;2023-07-13T10:45:47;7.10;;;2.22;;
42662;SDS011;44330;51.360;6.686;2023-07-13T10:48:15;9.98;;;1.95;;
42662;SDS011;44330;51.360;6.686;2023-07-13T10:50:42;6.13;;;2.15;;
42662;SDS011;44330;51.360;6.686;2023-07-13T10:58:19;9.88;;;2.20;;
42662;SDS011;44330;51.360;6.686;2023-07-13T11:03:32;7.32;;;2.20;;
42662;SDS011;44330;51.360;6.686;2023-07-13T11:06:05;10.38;;;2.38;;
42662;SDS011;44330;51.360;6.686;2023-07-13T11:08:35;7.93;;;2.13;;
42662;SDS011;44330;51.360;6.686;2023-07-13T11:11:02;8.63;;;2.53;;
42662;SDS011;44330;51.360;6.686;2023-07-13T11:18:51;4.93;;;1.88;;
42662;SDS011;44330;51.360;6.686;2023-07-13T11:21:19;8.40;;;2.20;;
42662;SDS011;44330;51.360;6.686;2023-07-13T11:23:52;8.20;;;2.25;;
42662;SDS011;44330;51.360;6.686;2023-07-13T11:31:42;8.65;;;1.77;;
42662;SDS011;44330;51.360;6.686;2023-07-13T11:34:15;6.28;;;2.00;;
42662;SDS011;44330;51.360;6.686;2023-07-13T11:36:52;5.55;;;2.10;;
42662;SDS011;44330;51.360;6.686;2023-07-13T11:39:19;6.63;;;1.83;;
42662;SDS011;44330;51.360;6.686;2023-07-13T11:41:53;5.57;;;1.73;;
42662;SDS011;44330;51.360;6.686;2023-07-13T11:44:25;13.55;;;2.00;;
42662;SDS011;44330;51.360;6.686;2023-07-13T11:46:55;4.85;;;1.92;;
42662;SDS011;44330;51.360;6.686;2023-07-13T11:49:26;6.55;;;2.03;;
42662;SDS011;44330;51.360;6.686;2023-07-13T11:51:54;10.10;;;2.03;;
42662;SDS011;44330;51.360;6.686;2023-07-13T11:54:23;4.93;;;1.75;;
42662;SDS011;44330;51.360;6.686;2023-07-13T11:56:59;4.68;;;1.98;;
42662;SDS011;44330;51.360;6.686;2023-07-13T11:59:31;16.42;;;2.40;;
42662;SDS011;44330;51.360;6.686;2023-07-13T12:01:58;14.70;;;2.20;;
42662;SDS011;44330;51.360;6.686;2023-07-13T12:04:25;5.30;;;1.52;;
42662;SDS011;44330;51.360;6.686;2023-07-13T12:06:57;5.18;;;1.60;;
42662;SDS011;44330;51.360;6.686;2023-07-13T12:09:30;6.68;;;1.65;;
42662;SDS011;44330;51.360;6.686;2023-07-13T12:11:58;3.85;;;1.80;;
42662;SDS011;44330;51.360;6.686;2023-07-13T12:14:25;3.90;;;1.48;;
42662;SDS011;44330;51.360;6.686;2023-07-13T12:16:51;6.53;;;1.60;;
42662;SDS011;44330;51.360;6.686;2023-07-13T12:19:36;5.18;;;2.03;;
42662;SDS011;44330;51.360;6.686;2023-07-13T12:22:02;8.00;;;2.17;;
42662;SDS011;44330;51.360;6.686;2023-07-13T12:24:27;8.63;;;1.65;;
42662;SDS011;44330;51.360;6.686;2023-07-13T12:27:03;6.25;;;1.77;;
42662;SDS011;44330;51.360;6.686;2023-07-13T12:29:29;5.25;;;1.60;;
42662;SDS011;44330;51.360;6.686;2023-07-13T12:31:56;3.33;;;1.60;;
42662;SDS011;44330;51.360;6.686;2023-07-13T12:34:23;10.20;;;2.30;;
42662;SDS011;44330;51.360;6.686;2023-07-13T12:36:58;5.35;;;1.85;;
42662;SDS011;44330;51.360;6.686;2023-07-13T12:39:39;7.18;;;1.67;;
42662;SDS011;44330;51.360;6.686;2023-07-13T12:44:53;7.40;;;1.83;;
42662;SDS011;44330;51.360;6.686;2023-07-13T12:47:24;6.53;;;2.13;;
42662;SDS011;44330;51.360;6.686;2023-07-13T12:49:53;5.00;;;1.67;;
42662;SDS011;44330;51.360;6.686;2023-07-13T12:52:22;7.72;;;2.10;;
42662;SDS011;44330;51.360;6.686;2023-07-13T12:54:54;3.70;;;1.63;;
42662;SDS011;44330;51.360;6.686;2023-07-13T12:57:22;3.78;;;1.65;;
42662;SDS011;44330;51.360;6.686;2023-07-13T12:59:51;7.00;;;2.17;;
42662;SDS011;44330;51.360;6.686;2023-07-13T13:02:31;5.63;;;1.83;;
42662;SDS011;44330;51.360;6.686;2023-07-13T13:05:00;4.60;;;1.63;;
42662;SDS011;44330;51.360;6.686;2023-07-13T13:07:28;5.63;;;1.55;;
42662;SDS011;44330;51.360;6.686;2023-07-13T13:09:54;6.03;;;1.42;;
42662;SDS011;44330;51.360;6.686;2023-07-13T13:12:20;8.45;;;1.58;;
42662;SDS011;44330;51.360;6.686;2023-07-13T13:14:46;3.13;;;1.30;;
42662;SDS011;44330;51.360;6.686;2023-07-13T13:17:20;6.25;;;1.60;;
42662;SDS011;44330;51.360;6.686;2023-07-13T13:19:54;4.07;;;1.52;;
42662;SDS011;44330;51.360;6.686;2023-07-13T13:22:20;3.65;;;1.60;;
42662;SDS011;44330;51.360;6.686;2023-07-13T13:24:46;6.90;;;1.77;;
42662;SDS011;44330;51.360;6.686;2023-07-13T13:27:16;5.97;;;1.70;;
42662;SDS011;44330;51.360;6.686;2023-07-13T13:29:49;5.40;;;1.55;;
42662;SDS011;44330;51.360;6.686;2023-07-13T13:32:19;2.67;;;1.52;;
42662;SDS011;44330;51.360;6.686;2023-07-13T13:34:44;7.97;;;1.63;;
42662;SDS011;44330;51.360;6.686;2023-07-13T13:37:20;8.40;;;1.73;;
42662;SDS011;44330;51.360;6.686;2023-07-13T13:39:47;7.57;;;2.10;;
42662;SDS011;44330;51.360;6.686;2023-07-13T13:42:14;8.20;;;2.00;;
42662;SDS011;44330;51.360;6.686;2023-07-13T13:44:40;5.07;;;1.52;;
42662;SDS011;44330;51.360;6.686;2023-07-13T13:47:17;5.80;;;1.73;;
42662;SDS011;44330;51.360;6.686;2023-07-13T13:49:44;7.57;;;1.63;;
42662;SDS011;44330;51.360;6.686;2023-07-13T13:52:10;5.45;;;1.65;;
42662;SDS011;44330;51.360;6.686;2023-07-13T13:54:35;5.63;;;1.48;;
42662;SDS011;44330;51.360;6.686;2023-07-13T13:57:01;5.18;;;1.60;;
42662;SDS011;44330;51.360;6.686;2023-07-13T13:59:27;2.20;;;1.10;;
42662;SDS011;44330;51.360;6.686;2023-07-13T14:01:52;3.92;;;1.52;;
42662;SDS011;44330;51.360;6.686;2023-07-13T14:04:18;4.00;;;1.83;;
42662;SDS011;44330;51.360;6.686;2023-07-13T14:06:45;6.05;;;1.60;;
42662;SDS011;44330;51.360;6.686;2023-07-13T14:09:12;4.07;;;1.55;;
42662;SDS011;44330;51.360;6.686;2023-07-13T14:11:39;5.10;;;1.60;;
42662;SDS011;44330;51.360;6.686;2023-07-13T14:14:15;6.28;;;1.73;;
42662;SDS011;44330;51.360;6.686;2023-07-13T14:16:43;5.93;;;1.38;;
42662;SDS011;44330;51.360;6.686;2023-07-13T14:19:12;6.03;;;1.63;;
42662;SDS011;44330;51.360;6.686;2023-07-13T14:21:39;4.43;;;1.70;;
42662;SDS011;44330;51.360;6.686;2023-07-13T14:24:04;5.68;;;1.70;;
42662;SDS011;44330;51.360;6.686;2023-07-13T14:26:31;3.63;;;1.17;;
42662;SDS011;44330;51.360;6.686;2023-07-13T14:29:10;4.63;;;1.50;;
42662;SDS011;44330;51.360;6.686;2023-07-13T14:31:41;6.80;;;1.92;;
42662;SDS011;44330;51.360;6.686;2023-07-13T14:34:08;5.97;;;1.60;;
42662;SDS011;44330;51.360;6.686;2023-07-13T14:36:37;4.40;;;1.52;;
42662;SDS011;44330;51.360;6.686;2023-07-13T14:39:15;7.85;;;1.63;;
42662;SDS011;44330;51.360;6.686;2023-07-13T14:41:49;7.22;;;1.63;;
42662;SDS011;44330;51.360;6.686;2023-07-13T14:44:16;4.55;;;1.35;;
42662;SDS011;44330;51.360;6.686;2023-07-13T14:46:45;3.88;;;1.50;;
42662;SDS011;44330;51.360;6.686;2023-07-13T14:49:32;3.58;;;1.88;;
42662;SDS011;44330;51.360;6.686;2023-07-13T14:52:18;7.38;;;1.98;;
42662;SDS011;44330;51.360;6.686;2023-07-13T14:54:45;6.18;;;1.70;;
42662;SDS011;44330;51.360;6.686;2023-07-13T14:57:12;5.78;;;1.90;;
42662;SDS011;44330;51.360;6.686;2023-07-13T14:59:40;8.57;;;2.47;;
42662;SDS011;44330;51.360;6.686;2023-07-13T15:04:42;4.85;;;1.77;;
42662;SDS011;44330;51.360;6.686;2023-07-13T15:07:08;4.38;;;1.38;;
42662;SDS011;44330;51.360;6.686;2023-07-13T15:09:35;6.00;;;1.80;;
42662;SDS011;44330;51.360;6.686;2023-07-13T15:12:01;7.40;;;2.20;;
42662;SDS011;44330;51.360;6.686;2023-07-13T15:14:27;4.53;;;1.35;;
42662;SDS011;44330;51.360;6.686;2023-07-13T15:16:54;4.32;;;1.50;;
42662;SDS011;44330;51.360;6.686;2023-07-13T15:19:21;4.38;;;1.60;;
42662;SDS011;44330;51.360;6.686;2023-07-13T15:21:48;3.75;;;1.60;;
42662;SDS011;44330;51.360;6.686;2023-07-13T15:24:14;1.85;;;1.25;;
42662;SDS011;44330;51.360;6.686;2023-07-13T15:26:41;2.33;;;1.30;;
42662;SDS011;44330;51.360;6.686;2023-07-13T15:29:10;2.63;;;1.33;;
42662;SDS011;44330;51.360;6.686;2023-07-13T15:31:36;3.58;;;1.50;;
42662;SDS011;44330;51.360;6.686;2023-07-13T15:34:07;2.95;;;1.40;;
42662;SDS011;44330;51.360;6.686;2023-07-13T15:36:39;4.07;;;1.45;;
42662;SDS011;44330;51.360;6.686;2023-07-13T15:39:05;4.30;;;1.90;;